Time;durP1;ratioP1;P1;durP2;ratioP2;P2;SDS_P1;SDS_P2;PMS_P1;PMS_P2;Temp;Humidity;BMP_temperature;BMP_pressure;BME280_temperature;BME280_humidity;BME280_pressure;Samples;Min_cycle;Max_cycle;Signal;HPM_P1;HPM_P2
2024/02/15 00:01:52;;;;;;;;;;;9.40;100.00;;;;;;4999041;28;20546;-74
2024/02/15 00:04:20;;;;;;;;;;;9.40;100.00;;;;;;4999139;28;19940;-74
2024/02/15 00:06:47;;;;;;;;;;;9.40;100.00;;;;;;4999106;28;19940;-74
2024/02/15 00:09:14;;;;;;;;;;;9.40;100.00;;;;;;4999575;28;20056;-74
2024/02/15 00:11:41;;;;;;;;;;;9.30;100.00;;;;;;5009839;28;19937;-73
2024/02/15 00:14:08;;;;;;;;;;;9.40;100.00;;;;;;4998417;28;19934;-73
2024/02/15 00:16:37;;;;;;;;;;;9.30;100.00;;;;;;4997572;28;19933;-74
2024/02/15 00:19:04;;;;;;;;;;;9.30;100.00;;;;;;4998597;28;19984;-73
2024/02/15 00:21:31;;;;;;;;;;;9.40;100.00;;;;;;4998924;28;20130;-74
2024/02/15 00:23:59;;;;;;;;;;;9.30;100.00;;;;;;4999246;28;19973;-74
2024/02/15 00:26:26;;;;;;;;;;;9.30;100.00;;;;;;4998481;28;19932;-74
2024/02/15 00:28:53;;;;;;;;;;;9.30;100.00;;;;;;4998231;28;20016;-73
2024/02/15 00:31:20;;;;;;;;;;;9.30;100.00;;;;;;5002507;28;20071;-74
2024/02/15 00:33:46;;;;;;;;;;;9.30;100.00;;;;;;4998111;28;19972;-74
2024/02/15 00:36:14;;;;;;;;;;;9.30;100.00;;;;;;5013005;28;19939;-74
2024/02/15 00:38:42;;;;;;;;;;;9.30;100.00;;;;;;4997656;28;19933;-74
2024/02/15 00:41:10;;;;;;;;;;;9.30;100.00;;;;;;4998679;28;19933;-74
2024/02/15 00:43:37;;;;;;;;;;;9.30;100.00;;;;;;5014188;28;19934;-74
2024/02/15 00:46:04;;;;;;;;;;;9.30;100.00;;;;;;4997857;28;19939;-74
2024/02/15 00:48:30;;;;;;;;;;;9.30;100.00;;;;;;4998363;28;19976;-74
2024/02/15 00:50:57;;;;;;;;;;;9.30;100.00;;;;;;4998432;28;19981;-74
2024/02/15 00:53:24;;;;;;;;;;;9.30;100.00;;;;;;4998330;28;20401;-74
2024/02/15 00:55:52;;;;;;;;;;;9.30;100.00;;;;;;4998169;28;19941;-74
2024/02/15 00:58:18;;;;;;;;;;;9.30;100.00;;;;;;4998273;28;20610;-74
2024/02/15 01:00:45;;;;;;;;;;;9.30;100.00;;;;;;4998341;28;20091;-73
2024/02/15 01:03:12;;;;;;;;;;;9.20;100.00;;;;;;4998109;28;19937;-73
2024/02/15 01:05:39;;;;;;;;;;;9.20;100.00;;;;;;4998200;28;19941;-73
2024/02/15 01:08:05;;;;;;;;;;;9.20;100.00;;;;;;4997386;28;19933;-73
2024/02/15 01:10:33;;;;;;;;;;;9.20;100.00;;;;;;4998522;28;20041;-73
2024/02/15 01:13:00;;;;;;;;;;;9.10;100.00;;;;;;4998313;28;19937;-73
2024/02/15 01:15:27;;;;;;;;;;;9.20;100.00;;;;;;4998031;28;20067;-74
2024/02/15 01:17:54;;;;;;;;;;;9.20;100.00;;;;;;4997830;28;19991;-74
2024/02/15 01:20:21;;;;;;;;;;;9.10;100.00;;;;;;4998421;28;20007;-74
2024/02/15 01:22:48;;;;;;;;;;;9.10;100.00;;;;;;5001348;28;19965;-74
2024/02/15 01:25:15;;;;;;;;;;;9.10;100.00;;;;;;4998402;28;20653;-73
2024/02/15 01:27:42;;;;;;;;;;;9.10;100.00;;;;;;4998106;28;19933;-74
2024/02/15 01:30:10;;;;;;;;;;;9.10;100.00;;;;;;4998165;28;19965;-74
2024/02/15 01:32:37;;;;;;;;;;;9.10;100.00;;;;;;4998391;28;20044;-74
2024/02/15 01:35:04;;;;;;;;;;;9.10;100.00;;;;;;4997680;28;19951;-74
2024/02/15 01:37:30;;;;;;;;;;;9.00;100.00;;;;;;4997520;28;20702;-74
2024/02/15 01:39:57;;;;;;;;;;;9.00;100.00;;;;;;4997939;28;20518;-74
2024/02/15 01:42:24;;;;;;;;;;;9.10;100.00;;;;;;4997699;28;19934;-74
2024/02/15 01:44:52;;;;;;;;;;;9.00;100.00;;;;;;4997248;28;20703;-74
2024/02/15 01:47:19;;;;;;;;;;;9.00;100.00;;;;;;4997673;28;19968;-74
2024/02/15 01:49:48;;;;;;;;;;;9.00;100.00;;;;;;4996804;28;20003;-74
2024/02/15 01:52:17;;;;;;;;;;;9.00;100.00;;;;;;5012751;28;19937;-74
2024/02/15 01:54:44;;;;;;;;;;;9.00;100.00;;;;;;4998130;28;19933;-74
2024/02/15 01:57:11;;;;;;;;;;;9.00;100.00;;;;;;4997274;28;19934;-74
2024/02/15 01:59:37;;;;;;;;;;;8.90;100.00;;;;;;4997986;28;20023;-74
2024/02/15 02:02:08;;;;;;;;;;;8.90;100.00;;;;;;4996652;28;19933;-74
2024/02/15 02:04:35;;;;;;;;;;;8.90;100.00;;;;;;4998154;28;20546;-74
2024/02/15 02:07:01;;;;;;;;;;;8.90;100.00;;;;;;4997652;28;19934;-74
2024/02/15 02:09:28;;;;;;;;;;;8.90;100.00;;;;;;4996512;28;19933;-74
2024/02/15 02:11:55;;;;;;;;;;;8.90;100.00;;;;;;4995771;28;19988;-74
2024/02/15 02:14:22;;;;;;;;;;;8.90;100.00;;;;;;4997479;28;19933;-74
2024/02/15 02:16:49;;;;;;;;;;;8.90;100.00;;;;;;4997868;28;20035;-74
2024/02/15 02:19:17;;;;;;;;;;;8.90;100.00;;;;;;4999338;28;20671;-74
2024/02/15 02:21:44;;;;;;;;;;;8.90;100.00;;;;;;5000619;28;19933;-74
2024/02/15 02:24:18;;;;;;;;;;;8.90;100.00;;;;;;5001231;28;19973;-74
2024/02/15 02:26:45;;;;;;;;;;;8.90;100.00;;;;;;5000977;28;20500;-74
2024/02/15 02:29:13;;;;;;;;;;;8.90;100.00;;;;;;5000793;28;19996;-74
2024/02/15 02:31:40;;;;;;;;;;;8.90;100.00;;;;;;5017268;28;19948;-74
2024/02/15 02:34:07;;;;;;;;;;;8.90;100.00;;;;;;5000390;28;20019;-74
2024/02/15 02:36:34;;;;;;;;;;;8.90;100.00;;;;;;5001638;28;19963;-74
2024/02/15 02:39:01;;;;;;;;;;;8.90;100.00;;;;;;5001618;28;20032;-74
2024/02/15 02:41:28;;;;;;;;;;;8.90;100.00;;;;;;5001853;28;20046;-74
2024/02/15 02:43:58;;;;;;;;;;;8.90;100.00;;;;;;5004830;28;20561;-74
2024/02/15 02:46:25;;;;;;;;;;;8.90;100.00;;;;;;5005045;28;19941;-74
2024/02/15 02:48:52;;;;;;;;;;;8.90;100.00;;;;;;5001117;28;19933;-74
2024/02/15 02:51:19;;;;;;;;;;;8.90;100.00;;;;;;5001378;28;19933;-74
2024/02/15 02:53:46;;;;;;;;;;;8.90;100.00;;;;;;5001248;28;19933;-74
2024/02/15 02:56:13;;;;;;;;;;;8.90;100.00;;;;;;5001753;28;20453;-74
2024/02/15 02:58:43;;;;;;;;;;;8.90;100.00;;;;;;5013294;28;19940;-74
2024/02/15 03:01:11;;;;;;;;;;;8.90;100.00;;;;;;5000993;28;20028;-74
2024/02/15 03:03:39;;;;;;;;;;;8.90;100.00;;;;;;5015768;28;20607;-74
2024/02/15 03:06:06;;;;;;;;;;;8.90;100.00;;;;;;5001305;28;19961;-74
2024/02/15 03:08:33;;;;;;;;;;;8.90;100.00;;;;;;5002965;28;20040;-74
2024/02/15 03:11:01;;;;;;;;;;;8.90;100.00;;;;;;5004821;28;19940;-74
2024/02/15 03:13:27;;;;;;;;;;;9.00;100.00;;;;;;5001048;28;19933;-74
2024/02/15 03:15:54;;;;;;;;;;;8.90;100.00;;;;;;5000756;28;20020;-74
2024/02/15 03:18:23;;;;;;;;;;;8.90;100.00;;;;;;4999949;28;20980;-74
2024/02/15 03:20:50;;;;;;;;;;;8.90;100.00;;;;;;4998808;28;19933;-74
2024/02/15 03:23:17;;;;;;;;;;;8.90;100.00;;;;;;5016204;28;19934;-74
2024/02/15 03:25:43;;;;;;;;;;;9.00;100.00;;;;;;4999703;28;19998;-74
2024/02/15 03:28:10;;;;;;;;;;;9.00;100.00;;;;;;4999733;28;20476;-74
2024/02/15 03:30:37;;;;;;;;;;;9.00;100.00;;;;;;5013993;23;19937;-74
2024/02/15 03:33:05;;;;;;;;;;;9.00;100.00;;;;;;5014236;28;20438;-74
2024/02/15 03:35:33;;;;;;;;;;;9.00;100.00;;;;;;5014701;28;19968;-75
2024/02/15 03:38:00;;;;;;;;;;;9.00;100.00;;;;;;5010924;28;20684;-74
2024/02/15 03:40:28;;;;;;;;;;;9.00;100.00;;;;;;5011663;28;19940;-74
2024/02/15 03:42:56;;;;;;;;;;;9.10;100.00;;;;;;5014456;28;19961;-74
2024/02/15 03:45:24;;;;;;;;;;;9.10;100.00;;;;;;5012244;28;20020;-74
2024/02/15 03:47:52;;;;;;;;;;;9.10;100.00;;;;;;5011416;28;20040;-74
2024/02/15 03:50:21;;;;;;;;;;;9.10;100.00;;;;;;5028828;28;19941;-74
2024/02/15 03:52:48;;;;;;;;;;;9.10;100.00;;;;;;5013162;28;20656;-74
2024/02/15 03:55:15;;;;;;;;;;;9.10;100.00;;;;;;5010646;28;19937;-74
2024/02/15 03:57:45;;;;;;;;;;;9.20;100.00;;;;;;5028709;28;20020;-74
2024/02/15 04:00:20;;;;;;;;;;;9.10;100.00;;;;;;5011923;28;19940;-74
2024/02/15 04:02:49;;;;;;;;;;;9.10;100.00;;;;;;5018971;28;20020;-74
2024/02/15 04:05:18;;;;;;;;;;;9.20;100.00;;;;;;5018798;28;19983;-74
2024/02/15 04:07:45;;;;;;;;;;;9.20;100.00;;;;;;5019185;28;19933;-74
2024/02/15 04:10:12;;;;;;;;;;;9.10;100.00;;;;;;5018907;28;19971;-74
2024/02/15 04:12:41;;;;;;;;;;;9.10;100.00;;;;;;5017642;28;19933;-74
2024/02/15 04:15:11;;;;;;;;;;;9.10;100.00;;;;;;5019410;28;19933;-75
2024/02/15 04:17:40;;;;;;;;;;;9.10;100.00;;;;;;5018978;28;20453;-74
2024/02/15 04:20:08;;;;;;;;;;;9.10;100.00;;;;;;5018827;28;20003;-74
2024/02/15 04:22:38;;;;;;;;;;;9.10;100.00;;;;;;5017963;28;20059;-74
2024/02/15 04:25:06;;;;;;;;;;;9.20;100.00;;;;;;5032901;28;19948;-74
2024/02/15 04:27:33;;;;;;;;;;;9.10;100.00;;;;;;5019186;28;20015;-75
2024/02/15 04:30:00;;;;;;;;;;;9.10;100.00;;;;;;5018732;28;19937;-74
2024/02/15 04:32:28;;;;;;;;;;;9.20;100.00;;;;;;5012938;28;19933;-74
2024/02/15 04:34:55;;;;;;;;;;;9.20;100.00;;;;;;5019035;28;19933;-75
2024/02/15 04:37:22;;;;;;;;;;;9.20;100.00;;;;;;5018547;28;19937;-74
2024/02/15 04:39:49;;;;;;;;;;;9.20;100.00;;;;;;5018666;28;19933;-74
2024/02/15 04:42:18;;;;;;;;;;;9.20;100.00;;;;;;5030927;28;19980;-75
2024/02/15 04:44:45;;;;;;;;;;;9.20;100.00;;;;;;5018160;28;20433;-75
2024/02/15 04:47:11;;;;;;;;;;;9.20;100.00;;;;;;5017045;28;19933;-73
2024/02/15 04:49:38;;;;;;;;;;;9.20;100.00;;;;;;5016381;28;19969;-75
2024/02/15 04:52:06;;;;;;;;;;;9.20;100.00;;;;;;5023706;28;19933;-75
2024/02/15 04:54:33;;;;;;;;;;;9.20;100.00;;;;;;5037304;28;19940;-75
2024/02/15 04:57:00;;;;;;;;;;;9.20;100.00;;;;;;5022286;28;19983;-75
2024/02/15 04:59:29;;;;;;;;;;;9.20;100.00;;;;;;5032984;28;19937;-74
2024/02/15 05:01:58;;;;;;;;;;;9.20;100.00;;;;;;5014965;28;19929;-74
2024/02/15 05:04:25;;;;;;;;;;;9.30;100.00;;;;;;5029115;28;19933;-74
2024/02/15 05:06:52;;;;;;;;;;;9.30;100.00;;;;;;5012844;28;19933;-76
2024/02/15 05:09:20;;;;;;;;;;;9.30;100.00;;;;;;5014259;28;19940;-74
2024/02/15 05:11:47;;;;;;;;;;;9.30;100.00;;;;;;5010989;28;20062;-74
2024/02/15 05:14:20;;;;;;;;;;;9.30;100.00;;;;;;5012821;28;19972;-74
2024/02/15 05:16:48;;;;;;;;;;;9.30;100.00;;;;;;5012631;28;19933;-74
2024/02/15 05:19:16;;;;;;;;;;;9.30;100.00;;;;;;5025547;28;19968;-74
2024/02/15 05:21:46;;;;;;;;;;;9.30;100.00;;;;;;5010229;28;19933;-74
2024/02/15 05:24:14;;;;;;;;;;;9.30;100.00;;;;;;5011589;28;19929;-74
2024/02/15 05:26:42;;;;;;;;;;;9.30;100.00;;;;;;5009056;28;19933;-74
2024/02/15 05:29:11;;;;;;;;;;;9.40;100.00;;;;;;5012931;28;20624;-74
2024/02/15 05:31:38;;;;;;;;;;;9.40;100.00;;;;;;5014960;28;19933;-73
2024/02/15 05:34:07;;;;;;;;;;;9.40;100.00;;;;;;5016625;28;19933;-74
2024/02/15 05:36:34;;;;;;;;;;;9.40;100.00;;;;;;5017647;28;19933;-73
2024/02/15 05:39:02;;;;;;;;;;;9.30;100.00;;;;;;5018009;28;20293;-73
2024/02/15 05:41:30;;;;;;;;;;;9.40;100.00;;;;;;5019397;28;20022;-76
2024/02/15 05:43:57;;;;;;;;;;;9.40;100.00;;;;;;5020498;28;20022;-74
2024/02/15 05:46:24;;;;;;;;;;;9.40;100.00;;;;;;5020185;28;19979;-76
2024/02/15 05:48:51;;;;;;;;;;;9.40;100.00;;;;;;5019482;28;20010;-75
2024/02/15 05:51:18;;;;;;;;;;;9.40;100.00;;;;;;5020638;28;20359;-76
2024/02/15 05:53:45;;;;;;;;;;;9.40;100.00;;;;;;5018929;28;19968;-74
2024/02/15 05:56:13;;;;;;;;;;;9.40;100.00;;;;;;5018424;28;20858;-71
2024/02/15 05:58:40;;;;;;;;;;;9.40;100.00;;;;;;5016787;28;20809;-72
2024/02/15 06:01:06;;;;;;;;;;;9.50;100.00;;;;;;5014260;28;19933;-71
2024/02/15 06:03:37;;;;;;;;;;;9.50;100.00;;;;;;5016273;28;20853;-71
2024/02/15 06:06:06;;;;;;;;;;;9.50;100.00;;;;;;5032216;28;20027;-72
2024/02/15 06:08:34;;;;;;;;;;;9.50;100.00;;;;;;5017961;28;19933;-72
2024/02/15 06:11:01;;;;;;;;;;;9.50;100.00;;;;;;5016254;28;21271;-72
2024/02/15 06:13:28;;;;;;;;;;;9.50;100.00;;;;;;5015124;28;19941;-72
2024/02/15 06:15:55;;;;;;;;;;;9.50;100.00;;;;;;5016966;28;19933;-72
2024/02/15 06:18:24;;;;;;;;;;;9.60;100.00;;;;;;5017423;28;20016;-72
2024/02/15 06:20:51;;;;;;;;;;;9.60;100.00;;;;;;5016593;28;19933;-71
2024/02/15 06:23:19;;;;;;;;;;;9.60;100.00;;;;;;5018387;28;19933;-72
2024/02/15 06:25:49;;;;;;;;;;;9.60;100.00;;;;;;5018472;28;20019;-73
2024/02/15 06:39:38;;;;;;;;;;;9.50;100.00;;;;;;5019647;28;20378;-74
2024/02/15 06:39:42;;;;;;;;;;;9.60;100.00;;;;;;5016177;28;20388;-75
2024/02/15 06:42:11;;;;;;;;;;;9.60;100.00;;;;;;5015509;28;19933;-71
2024/02/15 06:44:40;;;;;;;;;;;9.60;100.00;;;;;;5015648;28;20037;-71
2024/02/15 06:47:07;;;;;;;;;;;9.60;100.00;;;;;;5009877;28;19933;-71
2024/02/15 06:49:34;;;;;;;;;;;9.60;100.00;;;;;;5031493;28;19995;-71
2024/02/15 06:52:02;;;;;;;;;;;9.70;100.00;;;;;;5016179;28;20067;-71
2024/02/15 06:54:29;;;;;;;;;;;9.70;100.00;;;;;;5015374;28;19933;-71
2024/02/15 06:56:55;;;;;;;;;;;9.70;100.00;;;;;;5015269;28;20388;-71
2024/02/15 06:59:22;;;;;;;;;;;9.80;100.00;;;;;;5014391;28;20092;-71
2024/02/15 07:01:51;;;;;;;;;;;9.80;100.00;;;;;;5015126;28;19933;-71
2024/02/15 07:04:20;;;;;;;;;;;9.80;100.00;;;;;;5014653;28;19938;-72
2024/02/15 07:06:47;;;;;;;;;;;9.80;100.00;;;;;;5015578;28;20111;-72
2024/02/15 07:09:15;;;;;;;;;;;9.80;100.00;;;;;;5021399;28;20706;-71
2024/02/15 07:11:43;;;;;;;;;;;9.90;100.00;;;;;;5035878;28;20016;-71
2024/02/15 07:14:13;;;;;;;;;;;9.90;100.00;;;;;;5016340;28;20398;-72
2024/02/15 07:16:40;;;;;;;;;;;9.90;100.00;;;;;;5016675;28;19933;-72
2024/02/15 07:19:09;;;;;;;;;;;9.90;100.00;;;;;;5016651;28;20951;-72
2024/02/15 07:21:36;;;;;;;;;;;9.90;100.00;;;;;;5033440;28;20321;-72
2024/02/15 07:24:04;;;;;;;;;;;9.90;100.00;;;;;;5018228;28;19937;-72
2024/02/15 07:26:32;;;;;;;;;;;9.90;100.00;;;;;;5020045;28;19944;-72
2024/02/15 07:29:00;;;;;;;;;;;10.00;100.00;;;;;;5018238;28;19992;-72
2024/02/15 07:31:30;;;;;;;;;;;10.00;100.00;;;;;;5015476;28;19975;-72
2024/02/15 07:33:57;;;;;;;;;;;10.00;100.00;;;;;;5012946;28;20026;-72
2024/02/15 07:36:25;;;;;;;;;;;10.00;100.00;;;;;;5013365;28;19933;-72
2024/02/15 07:38:53;;;;;;;;;;;10.00;100.00;;;;;;5028615;28;21364;-72
2024/02/15 07:41:22;;;;;;;;;;;10.10;100.00;;;;;;5015462;28;19929;-76
2024/02/15 07:43:50;;;;;;;;;;;10.10;100.00;;;;;;5017274;28;19936;-72
2024/02/15 07:46:17;;;;;;;;;;;10.10;100.00;;;;;;5019490;28;19951;-72
2024/02/15 07:48:47;;;;;;;;;;;10.20;100.00;;;;;;5017427;28;19933;-73
2024/02/15 07:51:15;;;;;;;;;;;10.20;100.00;;;;;;5020312;28;19930;-72
2024/02/15 07:53:42;;;;;;;;;;;10.20;100.00;;;;;;5017737;28;19929;-71
2024/02/15 07:56:13;;;;;;;;;;;10.20;100.00;;;;;;5016158;28;19929;-71
2024/02/15 07:58:41;;;;;;;;;;;10.30;100.00;;;;;;5019488;28;19940;-73
2024/02/15 08:01:09;;;;;;;;;;;10.30;100.00;;;;;;5018674;28;20036;-72
2024/02/15 08:03:36;;;;;;;;;;;10.40;100.00;;;;;;5015721;28;19937;-72
2024/02/15 08:06:06;;;;;;;;;;;10.40;100.00;;;;;;5017213;28;20552;-71
2024/02/15 08:08:35;;;;;;;;;;;10.40;100.00;;;;;;5020961;28;19932;-71
2024/02/15 08:11:02;;;;;;;;;;;10.50;100.00;;;;;;5018086;28;20616;-71
2024/02/15 08:13:29;;;;;;;;;;;10.50;100.00;;;;;;5016166;28;19960;-72
2024/02/15 08:15:56;;;;;;;;;;;10.60;100.00;;;;;;5019428;28;20003;-71
2024/02/15 08:18:23;;;;;;;;;;;10.60;100.00;;;;;;5016481;28;20390;-71
2024/02/15 08:20:50;;;;;;;;;;;10.60;100.00;;;;;;5017422;28;19933;-71
2024/02/15 08:23:17;;;;;;;;;;;10.60;100.00;;;;;;5020214;28;19935;-72
2024/02/15 08:25:43;;;;;;;;;;;10.60;100.00;;;;;;5015775;28;19935;-71
2024/02/15 08:28:11;;;;;;;;;;;10.60;100.00;;;;;;5018243;28;20099;-72
2024/02/15 08:30:37;;;;;;;;;;;10.60;100.00;;;;;;5017758;28;20611;-71
2024/02/15 08:33:04;;;;;;;;;;;10.60;100.00;;;;;;5016407;28;19926;-71
2024/02/15 08:35:32;;;;;;;;;;;10.70;100.00;;;;;;5018184;28;19976;-72
2024/02/15 08:37:59;;;;;;;;;;;10.70;100.00;;;;;;5015392;28;20528;-72
2024/02/15 08:40:26;;;;;;;;;;;10.70;100.00;;;;;;5016930;28;19929;-72
2024/02/15 08:42:53;;;;;;;;;;;10.70;100.00;;;;;;5018076;28;19932;-71
2024/02/15 08:45:19;;;;;;;;;;;10.80;100.00;;;;;;5014163;28;19937;-70
2024/02/15 08:47:49;;;;;;;;;;;10.80;100.00;;;;;;5015094;28;20034;-71
2024/02/15 08:50:17;;;;;;;;;;;10.80;100.00;;;;;;5033266;28;20378;-71
2024/02/15 08:52:44;;;;;;;;;;;10.80;100.00;;;;;;5017882;28;20298;-71
2024/02/15 08:55:14;;;;;;;;;;;10.90;100.00;;;;;;5016796;28;20282;-76
2024/02/15 08:57:41;;;;;;;;;;;10.90;100.00;;;;;;5021731;28;20325;-71
2024/02/15 09:00:12;;;;;;;;;;;10.90;100.00;;;;;;5019275;28;20000;-71
2024/02/15 09:02:40;;;;;;;;;;;10.90;100.00;;;;;;5015890;28;19939;-71
2024/02/15 09:05:07;;;;;;;;;;;11.00;100.00;;;;;;5016561;28;19929;-71
2024/02/15 09:07:33;;;;;;;;;;;11.00;100.00;;;;;;5014775;28;19963;-71
2024/02/15 09:10:00;;;;;;;;;;;11.10;100.00;;;;;;5019655;28;19976;-71
2024/02/15 09:12:27;;;;;;;;;;;11.10;100.00;;;;;;5016779;28;20554;-71
2024/02/15 09:14:54;;;;;;;;;;;11.10;100.00;;;;;;5018504;28;19929;-71
2024/02/15 09:17:21;;;;;;;;;;;11.10;100.00;;;;;;5016432;28;19933;-71
2024/02/15 09:19:50;;;;;;;;;;;11.10;100.00;;;;;;5016956;28;19971;-71
2024/02/15 09:22:18;;;;;;;;;;;11.10;100.00;;;;;;5018140;28;19926;-76
2024/02/15 09:24:45;;;;;;;;;;;11.10;100.00;;;;;;5015500;28;19929;-76
2024/02/15 09:27:12;;;;;;;;;;;11.10;100.00;;;;;;5018694;28;19933;-76
2024/02/15 09:29:40;;;;;;;;;;;11.20;100.00;;;;;;5016770;28;20463;-76
2024/02/15 09:32:07;;;;;;;;;;;11.20;100.00;;;;;;5016386;28;20023;-76
2024/02/15 09:34:33;;;;;;;;;;;11.20;100.00;;;;;;5018892;28;19929;-76
2024/02/15 09:37:00;;;;;;;;;;;11.30;100.00;;;;;;5020205;28;20019;-76
2024/02/15 09:39:28;;;;;;;;;;;11.30;100.00;;;;;;5017486;28;20368;-76
2024/02/15 09:41:58;;;;;;;;;;;11.30;100.00;;;;;;5019354;28;19928;-72
2024/02/15 09:44:29;;;;;;;;;;;11.30;100.00;;;;;;5010272;28;20020;-76
2024/02/15 09:47:04;;;;;;;;;;;11.30;100.00;;;;;;5009818;28;20349;-76
2024/02/15 09:49:35;;;;;;;;;;;11.40;100.00;;;;;;5015687;28;19968;-76
2024/02/15 09:52:06;;;;;;;;;;;11.40;100.00;;;;;;5022444;28;19936;-76
2024/02/15 09:54:33;;;;;;;;;;;11.40;100.00;;;;;;5015924;28;19932;-71
2024/02/15 09:57:02;;;;;;;;;;;11.40;100.00;;;;;;5017277;28;20007;-78
2024/02/15 09:59:30;;;;;;;;;;;11.40;100.00;;;;;;5017541;28;19928;-76
2024/02/15 10:01:58;;;;;;;;;;;11.40;100.00;;;;;;5016123;28;19933;-72
2024/02/15 10:04:25;;;;;;;;;;;11.40;100.00;;;;;;5017214;28;20618;-72
2024/02/15 10:06:52;;;;;;;;;;;11.50;100.00;;;;;;5015971;28;19968;-71
2024/02/15 10:09:29;;;;;;;;;;;11.50;100.00;;;;;;5013382;28;19936;-71
2024/02/15 10:11:59;;;;;;;;;;;11.50;100.00;;;;;;5017287;28;19998;-72
2024/02/15 10:14:28;;;;;;;;;;;11.60;100.00;;;;;;5019825;28;19933;-72
2024/02/15 10:16:55;;;;;;;;;;;11.60;100.00;;;;;;5033049;28;19937;-71
2024/02/15 10:19:25;;;;;;;;;;;11.70;100.00;;;;;;5013307;28;19965;-71
2024/02/15 10:21:55;;;;;;;;;;;11.60;100.00;;;;;;5011606;28;19933;-71
2024/02/15 10:24:24;;;;;;;;;;;11.60;100.00;;;;;;5016946;28;19929;-72
2024/02/15 10:26:51;;;;;;;;;;;11.60;100.00;;;;;;5016773;28;19936;-71
2024/02/15 10:29:19;;;;;;;;;;;11.60;100.00;;;;;;5016403;28;20291;-71
2024/02/15 10:31:53;;;;;;;;;;;11.60;100.00;;;;;;5014369;28;20007;-71
2024/02/15 10:34:20;;;;;;;;;;;11.60;100.00;;;;;;5019112;28;19997;-71
2024/02/15 10:36:47;;;;;;;;;;;11.60;100.00;;;;;;5016103;28;19933;-71
2024/02/15 10:39:19;;;;;;;;;;;11.70;100.00;;;;;;5034179;28;20054;-71
2024/02/15 10:41:50;;;;;;;;;;;11.60;100.00;;;;;;5019115;28;19936;-71
2024/02/15 10:44:19;;;;;;;;;;;11.60;100.00;;;;;;5034849;28;20554;-71
2024/02/15 10:46:47;;;;;;;;;;;11.70;100.00;;;;;;5021890;28;19928;-71
2024/02/15 10:49:14;;;;;;;;;;;11.80;100.00;;;;;;5021117;28;20022;-72
2024/02/15 10:51:43;;;;;;;;;;;11.90;100.00;;;;;;5033465;28;20512;-71
2024/02/15 10:54:13;;;;;;;;;;;12.00;100.00;;;;;;5018021;28;20012;-72
2024/02/15 10:56:46;;;;;;;;;;;12.20;100.00;;;;;;5022563;28;20081;-71
2024/02/15 10:59:17;;;;;;;;;;;12.30;100.00;;;;;;5015349;28;20608;-71
2024/02/15 11:01:50;;;;;;;;;;;12.40;100.00;;;;;;5018249;28;20011;-71
2024/02/15 11:04:21;;;;;;;;;;;12.40;100.00;;;;;;5018707;28;20015;-71
2024/02/15 11:06:50;;;;;;;;;;;12.40;100.00;;;;;;5019085;28;19929;-71
2024/02/15 11:09:17;;;;;;;;;;;12.40;100.00;;;;;;5036856;28;20035;-71
2024/02/15 11:11:46;;;;;;;;;;;12.30;100.00;;;;;;5018342;28;19929;-71
2024/02/15 11:14:23;;;;;;;;;;;12.30;100.00;;;;;;5019669;28;19937;-71
2024/02/15 11:16:50;;;;;;;;;;;12.30;100.00;;;;;;5017843;28;19933;-71
2024/02/15 11:19:36;;;;;;;;;;;12.30;100.00;;;;;;5020475;28;19972;-71
2024/02/15 11:22:10;;;;;;;;;;;12.30;100.00;;;;;;5020289;28;19936;-72
2024/02/15 11:24:45;;;;;;;;;;;12.30;100.00;;;;;;5020923;28;19936;-71
2024/02/15 11:27:14;;;;;;;;;;;12.30;100.00;;;;;;5017621;28;20421;-71
2024/02/15 11:29:55;;;;;;;;;;;12.30;100.00;;;;;;5018076;28;19929;-71
2024/02/15 11:32:35;;;;;;;;;;;12.30;100.00;;;;;;5027852;28;19930;-71
2024/02/15 11:35:13;;;;;;;;;;;12.30;100.00;;;;;;5018910;28;20007;-71
2024/02/15 11:37:52;;;;;;;;;;;12.40;100.00;;;;;;5023453;28;19929;-71
2024/02/15 11:40:22;;;;;;;;;;;12.40;100.00;;;;;;5022645;28;20004;-77
2024/02/15 11:42:59;;;;;;;;;;;12.50;100.00;;;;;;5021885;28;20628;-77
2024/02/15 11:45:32;;;;;;;;;;;12.50;100.00;;;;;;5017961;28;19929;-77
2024/02/15 11:48:01;;;;;;;;;;;12.50;100.00;;;;;;5023659;28;19998;-77
2024/02/15 11:50:34;;;;;;;;;;;12.50;100.00;;;;;;5023136;28;19933;-77
2024/02/15 11:53:05;;;;;;;;;;;12.50;100.00;;;;;;5016513;28;20645;-71
2024/02/15 11:55:32;;;;;;;;;;;12.60;100.00;;;;;;5015722;28;20557;-71
2024/02/15 12:20:15;;;;;;;;;;;12.50;100.00;;;;;;5021266;28;19929;-75
2024/02/15 12:22:50;;;;;;;;;;;12.60;100.00;;;;;;5015956;28;19936;-78
2024/02/15 12:25:20;;;;;;;;;;;12.60;100.00;;;;;;5017237;28;20653;-73
2024/02/15 12:27:54;;;;;;;;;;;12.60;100.00;;;;;;5035719;28;20433;-73
2024/02/15 12:30:22;;;;;;;;;;;12.70;100.00;;;;;;5016124;28;20017;-71
2024/02/15 12:32:50;;;;;;;;;;;12.70;100.00;;;;;;5020972;28;19933;-80
2024/02/15 12:35:23;;;;;;;;;;;12.60;100.00;;;;;;5027630;28;19979;-77
2024/02/15 12:37:59;;;;;;;;;;;12.60;100.00;;;;;;5021507;28;20412;-71
2024/02/15 12:40:34;;;;;;;;;;;12.60;100.00;;;;;;5017383;28;19933;-71
2024/02/15 12:43:01;;;;;;;;;;;12.60;100.00;;;;;;5019467;28;20015;-71
2024/02/15 12:45:29;;;;;;;;;;;12.70;100.00;;;;;;5017808;28;19940;-71
2024/02/15 12:47:57;;;;;;;;;;;12.70;100.00;;;;;;5015728;28;20735;-72
2024/02/15 12:50:28;;;;;;;;;;;12.70;100.00;;;;;;5014910;28;19930;-71
2024/02/15 12:53:05;;;;;;;;;;;12.70;100.00;;;;;;5014547;28;19977;-71
2024/02/15 12:55:36;;;;;;;;;;;12.60;100.00;;;;;;5016302;28;20678;-71
2024/02/15 12:58:08;;;;;;;;;;;12.60;100.00;;;;;;5035551;28;20539;-71
2024/02/15 13:00:39;;;;;;;;;;;12.60;100.00;;;;;;5017668;28;20408;-71
2024/02/15 13:03:10;;;;;;;;;;;12.50;100.00;;;;;;5034270;28;19935;-71
2024/02/15 13:05:38;;;;;;;;;;;12.50;100.00;;;;;;5016760;28;20028;-71
2024/02/15 13:08:10;;;;;;;;;;;12.50;100.00;;;;;;5018082;28;19936;-71
2024/02/15 13:10:38;;;;;;;;;;;12.40;100.00;;;;;;5021486;28;20020;-71
2024/02/15 13:13:07;;;;;;;;;;;12.40;100.00;;;;;;5019344;28;22696;-71
2024/02/15 13:15:33;;;;;;;;;;;12.40;100.00;;;;;;5021067;28;19964;-74
2024/02/15 13:18:04;;;;;;;;;;;12.40;100.00;;;;;;5035973;28;19930;-75
2024/02/15 13:20:32;;;;;;;;;;;12.40;100.00;;;;;;5031566;28;20364;-74
2024/02/15 13:23:07;;;;;;;;;;;12.40;100.00;;;;;;5019770;28;20012;-74
2024/02/15 13:25:39;;;;;;;;;;;12.40;100.00;;;;;;5014444;28;20020;-75
2024/02/15 13:28:08;;;;;;;;;;;12.40;100.00;;;;;;5015456;28;20059;-75
2024/02/15 13:30:36;;;;;;;;;;;12.30;100.00;;;;;;5019583;28;19933;-74
2024/02/15 13:33:03;;;;;;;;;;;12.30;100.00;;;;;;5018678;28;19929;-75
2024/02/15 13:35:30;;;;;;;;;;;12.30;100.00;;;;;;5018822;28;20343;-75
2024/02/15 13:37:59;;;;;;;;;;;12.30;100.00;;;;;;5020257;28;20073;-75
2024/02/15 13:40:27;;;;;;;;;;;12.30;100.00;;;;;;5034437;28;20373;-75
2024/02/15 13:42:58;;;;;;;;;;;12.30;100.00;;;;;;5018912;28;19925;-75
2024/02/15 13:45:37;;;;;;;;;;;12.30;100.00;;;;;;5021392;28;19933;-75
2024/02/15 13:48:07;;;;;;;;;;;12.40;100.00;;;;;;5019790;28;19929;-75
2024/02/15 13:50:34;;;;;;;;;;;12.40;100.00;;;;;;5014317;28;20333;-75
2024/02/15 13:53:01;;;;;;;;;;;12.30;100.00;;;;;;5019685;28;19940;-75
2024/02/15 13:55:29;;;;;;;;;;;12.40;100.00;;;;;;5015447;28;19933;-75
2024/02/15 13:57:56;;;;;;;;;;;12.40;100.00;;;;;;5031023;28;19948;-75
2024/02/15 14:00:29;;;;;;;;;;;12.40;100.00;;;;;;5019249;28;19936;-75
2024/02/15 14:02:58;;;;;;;;;;;12.50;100.00;;;;;;5020897;28;20007;-75
2024/02/15 14:05:28;;;;;;;;;;;12.50;100.00;;;;;;5017449;28;19933;-75
2024/02/15 14:07:56;;;;;;;;;;;12.50;100.00;;;;;;5007706;28;19975;-75
2024/02/15 14:10:24;;;;;;;;;;;12.50;100.00;;;;;;5026977;28;19988;-75
2024/02/15 14:12:52;;;;;;;;;;;12.50;100.00;;;;;;5011891;28;19936;-75
2024/02/15 14:15:19;;;;;;;;;;;12.50;100.00;;;;;;5020376;28;19987;-75
2024/02/15 14:17:46;;;;;;;;;;;12.50;100.00;;;;;;5018441;28;19939;-75
2024/02/15 14:20:13;;;;;;;;;;;12.50;100.00;;;;;;5024130;28;19940;-75
2024/02/15 14:22:41;;;;;;;;;;;12.40;100.00;;;;;;5020681;28;19933;-75
2024/02/15 14:25:08;;;;;;;;;;;12.50;100.00;;;;;;5018441;28;19937;-75
2024/02/15 14:27:35;;;;;;;;;;;12.40;100.00;;;;;;5017684;28;19961;-75
2024/02/15 14:33:00;;;;;;;;;;;12.40;100.00;;;;;;5021595;28;19933;-76
2024/02/15 14:35:38;;;;;;;;;;;12.30;100.00;;;;;;5020554;28;19933;-75
2024/02/15 14:38:08;;;;;;;;;;;12.30;100.00;;;;;;5025195;28;20019;-76
2024/02/15 14:40:39;;;;;;;;;;;12.30;100.00;;;;;;5039030;28;20012;-76
2024/02/15 14:43:12;;;;;;;;;;;12.20;100.00;;;;;;5022491;28;20403;-80
2024/02/15 14:45:43;;;;;;;;;;;12.20;100.00;;;;;;5018831;28;20060;-77
2024/02/15 14:48:10;;;;;;;;;;;12.20;100.00;;;;;;5025324;28;19930;-77
2024/02/15 14:50:37;;;;;;;;;;;12.20;100.00;;;;;;5023699;28;19925;-79
2024/02/15 14:53:04;;;;;;;;;;;12.10;100.00;;;;;;5024283;28;20417;-78